createdAt,value
2019-05-10T11:18:16.104Z,17.60
2019-05-10T11:20:49.540Z,17.80
2019-05-10T11:23:16.195Z,17.90
2019-05-10T11:25:54.681Z,17.70
2019-05-10T11:28:13.504Z,17.70
2019-05-10T11:30:41.488Z,17.50
2019-05-10T11:33:23.907Z,17.60
2019-05-10T11:35:41.541Z,17.20
2019-05-10T11:38:12.926Z,17.20
2019-05-10T11:40:38.531Z,17.20
2019-05-10T11:43:09.557Z,17.40
2019-05-10T11:45:40.918Z,17.60
2019-05-10T11:48:07.255Z,17.80
2019-05-10T11:50:35.733Z,17.90
2019-05-10T11:53:13.308Z,17.60
2019-05-10T11:55:45.064Z,17.60
2019-05-10T11:58:18.836Z,17.30
2019-05-10T12:00:46.885Z,17.30
2019-05-10T12:03:18.544Z,17.00
2019-05-10T12:05:44.774Z,17.10
2019-05-10T12:08:13.273Z,17.50
2019-05-10T12:10:52.409Z,17.20
2019-05-10T12:13:18.677Z,17.20
2019-05-10T12:15:43.390Z,17.40
2019-05-10T12:18:14.745Z,17.50
2019-05-10T12:20:55.903Z,17.90
2019-05-10T12:23:13.242Z,17.60
2019-05-10T12:25:53.113Z,17.70
2019-05-10T12:28:15.346Z,17.70
2019-05-10T12:33:32.725Z,17.50
2019-05-10T12:35:52.032Z,17.60
2019-05-10T12:38:23.748Z,17.50
2019-05-10T12:40:51.348Z,17.50
2019-05-10T12:43:21.105Z,17.60
2019-05-10T12:45:51.566Z,17.60
2019-05-10T12:48:23.172Z,17.70
2019-05-10T12:50:54.390Z,17.90
2019-05-10T12:53:21.452Z,17.90
2019-05-10T12:55:49.716Z,17.70
2019-05-10T12:58:18.733Z,18.00
2019-05-10T13:00:52.374Z,18.20
2019-05-10T13:03:19.255Z,18.20
2019-05-10T13:05:52.417Z,17.90
2019-05-10T13:08:16.741Z,17.50
2019-05-10T13:10:49.948Z,17.70
2019-05-10T13:13:27.007Z,18.00
2019-05-10T13:15:52.852Z,18.00
2019-05-10T13:18:23.123Z,18.10
2019-05-10T13:20:51.475Z,18.40
2019-05-10T13:23:19.546Z,18.50
2019-05-10T13:25:47.604Z,18.70
2019-05-10T13:28:15.585Z,19.00
2019-05-10T13:30:43.581Z,18.70
2019-05-10T13:33:26.670Z,18.80
2019-05-10T13:35:41.610Z,18.90
2019-05-10T13:38:09.762Z,18.90
2019-05-10T13:40:45.010Z,18.90
2019-05-10T13:43:09.391Z,18.90
2019-05-10T13:45:39.939Z,18.90
2019-05-10T13:48:08.000Z,19.10
2019-05-10T13:50:55.658Z,19.30
2019-05-10T13:53:24.740Z,19.50
2019-05-10T13:55:52.778Z,19.20
2019-05-10T13:58:20.890Z,18.60
2019-05-10T14:00:49.032Z,18.40
2019-05-10T14:03:17.018Z,18.70
2019-05-10T14:05:45.067Z,18.50
2019-05-10T14:08:13.139Z,18.30
2019-05-10T14:10:41.207Z,18.10
2019-05-10T14:13:09.312Z,18.00
2019-05-10T14:15:37.370Z,18.00
2019-05-10T14:18:05.451Z,18.10
2019-05-10T14:20:33.479Z,17.90
2019-05-10T14:23:01.586Z,17.80
2019-05-10T14:25:36.268Z,17.90
2019-05-10T14:27:59.348Z,18.10
2019-05-10T14:30:27.406Z,18.30
2019-05-10T14:32:55.393Z,18.50
2019-05-10T14:35:24.501Z,18.90
2019-05-10T14:37:52.659Z,19.20
2019-05-10T14:40:27.570Z,19.40
2019-05-10T14:42:50.421Z,19.60
2019-05-10T14:45:18.411Z,19.70
2019-05-10T14:47:50.178Z,19.50
2019-05-10T14:50:19.262Z,19.20
2019-05-10T14:52:45.860Z,18.90
2019-05-10T14:55:13.952Z,18.80
2019-05-10T14:57:42.031Z,18.50
2019-05-10T15:00:10.379Z,18.40
2019-05-10T15:02:38.507Z,18.20
2019-05-10T15:05:08.890Z,18.00
2019-05-10T15:07:36.318Z,18.00
2019-05-10T15:10:04.687Z,18.10
2019-05-10T15:12:32.755Z,18.20
2019-05-10T15:15:00.942Z,18.20
2019-05-10T15:17:30.278Z,18.10
2019-05-10T15:20:00.041Z,18.20
2019-05-10T15:22:28.294Z,18.30
2019-05-10T15:24:56.288Z,18.60
2019-05-10T15:27:24.307Z,18.50
2019-05-10T15:29:52.381Z,18.60
2019-05-10T15:32:20.388Z,18.60
2019-05-10T15:35:05.086Z,18.40
2019-05-10T15:37:18.076Z,18.30
2019-05-10T15:39:46.146Z,18.00
2019-05-10T15:42:14.203Z,18.20
2019-05-10T15:44:42.198Z,18.20
2019-05-10T15:47:14.451Z,18.20
2019-05-10T15:49:39.906Z,18.50
2019-05-10T15:52:17.574Z,18.90
2019-05-10T15:54:44.132Z,18.50
2019-05-10T15:57:07.444Z,18.60
2019-05-10T15:59:35.558Z,18.70
2019-05-10T16:02:03.802Z,18.70
2019-05-10T16:04:31.785Z,18.60
2019-05-10T16:06:59.787Z,18.50
2019-05-10T16:09:27.787Z,18.50
2019-05-10T16:12:01.485Z,18.30
2019-05-10T16:14:25.567Z,18.50
2019-05-10T16:16:53.574Z,18.80
2019-05-10T16:19:21.636Z,18.40
2019-05-10T16:21:52.229Z,18.60
2019-05-10T16:24:25.937Z,19.20
2019-05-10T16:26:49.055Z,19.70
2019-05-10T16:29:17.104Z,19.50
2019-05-10T16:31:45.112Z,19.20
2019-05-10T16:34:13.097Z,19.40
2019-05-10T16:36:41.113Z,20.60
2019-05-10T16:39:09.202Z,20.60
2019-05-10T16:41:37.206Z,20.80
2019-05-10T16:44:05.186Z,19.80
2019-05-10T16:46:33.342Z,19.50
2019-05-10T16:49:01.505Z,19.10
2019-05-10T16:51:29.574Z,19.00
2019-05-10T16:53:57.566Z,18.80
2019-05-10T16:56:25.853Z,18.80
2019-05-10T16:58:55.108Z,18.60
2019-05-10T17:01:25.704Z,18.60
2019-05-10T17:03:59.979Z,18.50
2019-05-10T17:06:23.035Z,18.30
2019-05-10T17:08:51.078Z,18.20
2019-05-10T17:11:19.081Z,18.30
2019-05-10T17:13:47.072Z,18.20
2019-05-10T17:16:16.884Z,18.40
2019-05-10T17:18:49.766Z,18.50
2019-05-10T17:21:14.494Z,18.40
2019-05-10T17:23:46.750Z,18.50
2019-05-10T17:26:12.178Z,18.70
2019-05-10T17:28:40.165Z,18.50
2019-05-10T17:31:09.670Z,18.40
2019-05-10T17:33:42.563Z,18.10
2019-05-10T17:36:08.841Z,18.20
2019-05-10T17:38:37.143Z,18.30
2019-05-10T17:41:05.153Z,18.50
2019-05-10T17:43:33.155Z,18.50
2019-05-10T17:46:01.152Z,18.30
2019-05-10T17:48:29.191Z,18.20
2019-05-10T17:50:57.288Z,18.20
2019-05-10T17:53:25.502Z,18.20
2019-05-10T17:55:55.576Z,18.40
2019-05-10T17:58:27.818Z,18.70
2019-05-10T18:00:52.968Z,18.70
2019-05-10T18:03:21.048Z,18.70
2019-05-10T18:05:53.151Z,18.70
2019-05-10T18:08:18.849Z,18.90
2019-05-10T18:10:46.932Z,18.90
2019-05-10T18:13:14.948Z,18.80
2019-05-10T18:15:43.052Z,18.70
2019-05-10T18:18:11.160Z,18.90
2019-05-10T18:20:42.170Z,19.00
2019-05-10T18:23:09.719Z,18.70
2019-05-10T18:25:37.902Z,18.60
2019-05-10T18:28:06.277Z,19.00
2019-05-10T18:30:34.501Z,18.80
2019-05-10T18:33:06.702Z,18.90
2019-05-10T18:35:32.258Z,18.70
2019-05-10T18:38:00.964Z,18.50
2019-05-10T18:40:31.541Z,18.50
2019-05-10T18:43:03.908Z,18.30
2019-05-10T18:45:29.825Z,18.10
2019-05-10T18:47:58.228Z,18.20
2019-05-10T18:50:26.530Z,18.10
2019-05-10T18:52:54.551Z,17.90
2019-05-10T18:55:22.567Z,17.80
2019-05-10T18:57:52.565Z,17.60
2019-05-10T19:00:23.086Z,17.50
2019-05-10T19:02:55.353Z,17.70
2019-05-10T19:05:25.158Z,17.40
2019-05-10T19:08:02.658Z,17.10
2019-05-10T19:10:19.458Z,16.90
2019-05-10T19:12:53.684Z,16.70
2019-05-10T19:15:17.185Z,16.60
2019-05-10T19:17:45.914Z,16.70
2019-05-10T19:20:16.096Z,16.50
2019-05-10T19:22:44.932Z,16.50
2019-05-10T19:25:14.400Z,16.40
2019-05-10T19:27:44.742Z,16.30
2019-05-10T19:30:12.775Z,16.40
2019-05-10T19:32:41.033Z,16.60
2019-05-10T19:35:09.425Z,16.60
2019-05-10T19:37:37.524Z,16.30
2019-05-10T19:40:07.337Z,16.10
2019-05-10T19:42:37.156Z,16.60
2019-05-10T19:45:05.881Z,16.50
2019-05-10T19:47:33.889Z,16.10
2019-05-10T19:50:02.031Z,16.00
2019-05-10T19:52:30.220Z,16.00
2019-05-10T19:54:58.313Z,15.90
2019-05-10T19:57:26.342Z,15.80
2019-05-10T19:59:54.443Z,15.80
2019-05-10T20:02:22.439Z,15.90
2019-05-10T20:04:50.445Z,16.00
2019-05-10T20:07:18.538Z,15.90
2019-05-10T20:09:46.883Z,15.80
2019-05-10T20:12:15.028Z,15.80
2019-05-10T20:14:43.297Z,15.70
2019-05-10T20:20:00.968Z,15.60
2019-05-10T20:22:29.087Z,15.50
2019-05-10T20:24:57.130Z,15.40
2019-05-10T20:27:25.205Z,15.40
2019-05-10T20:29:53.251Z,15.60
2019-05-10T20:32:21.252Z,15.50
2019-05-10T20:34:49.255Z,15.60
2019-05-10T20:37:17.262Z,15.80
2019-05-10T20:39:45.469Z,16.20
2019-05-10T20:42:13.914Z,16.30
2019-05-10T20:44:42.050Z,16.50
2019-05-10T20:47:10.137Z,16.70
2019-05-10T20:49:38.269Z,16.70
2019-05-10T20:52:06.828Z,16.60
2019-05-10T20:54:35.193Z,16.80
2019-05-10T20:57:04.350Z,16.40
2019-05-10T20:59:32.501Z,16.20
2019-05-10T21:02:00.590Z,16.60
2019-05-10T21:04:28.742Z,16.40
2019-05-10T21:06:56.742Z,16.20
2019-05-10T21:09:24.843Z,16.60
2019-05-10T21:11:52.916Z,16.30
2019-05-10T21:14:20.923Z,16.20
2019-05-10T21:16:48.946Z,15.80
2019-05-10T21:19:19.782Z,15.80
2019-05-10T21:21:46.843Z,15.70
2019-05-10T21:24:14.908Z,15.60
2019-05-10T21:26:42.922Z,15.50
2019-05-10T21:29:11.053Z,15.40
2019-05-10T21:31:39.159Z,15.30
2019-05-10T21:34:09.712Z,15.40
2019-05-10T21:36:36.878Z,15.70
2019-05-10T21:39:06.630Z,15.90
2019-05-10T21:41:34.788Z,16.20
2019-05-10T21:44:02.851Z,16.20
2019-05-10T21:46:30.869Z,16.00
2019-05-10T21:48:58.913Z,15.60
2019-05-10T21:51:27.033Z,15.70
2019-05-10T21:53:55.086Z,15.40
2019-05-10T21:56:23.103Z,15.30
2019-05-10T21:58:51.158Z,15.20
2019-05-10T22:01:19.182Z,15.10
2019-05-10T22:03:47.312Z,15.00
2019-05-10T22:06:15.449Z,15.00
2019-05-10T22:08:49.292Z,14.90
2019-05-10T22:11:13.404Z,14.90
2019-05-10T22:13:41.506Z,14.80
2019-05-10T22:16:09.629Z,14.80
2019-05-10T22:18:38.103Z,14.80
2019-05-10T22:21:06.286Z,14.80
2019-05-10T22:23:34.389Z,15.10
2019-05-10T22:26:02.510Z,15.10
2019-05-10T22:28:30.613Z,15.50
2019-05-10T22:30:58.709Z,15.50
2019-05-10T22:33:26.815Z,16.00
2019-05-10T22:35:55.020Z,16.20
2019-05-10T22:38:23.129Z,15.80
2019-05-10T22:40:51.241Z,15.40
2019-05-10T22:43:19.350Z,15.20
2019-05-10T22:45:47.462Z,14.90
2019-05-10T22:48:15.573Z,14.90
2019-05-10T22:50:43.735Z,15.30
2019-05-10T22:53:11.938Z,15.10
2019-05-10T22:55:40.032Z,14.90
2019-05-10T22:58:08.261Z,14.90
2019-05-10T23:00:36.468Z,15.30
2019-05-10T23:03:04.613Z,15.60
2019-05-10T23:05:32.714Z,15.80
2019-05-10T23:08:00.850Z,15.80
2019-05-10T23:10:28.953Z,15.40
2019-05-10T23:12:57.073Z,15.60
2019-05-10T23:15:25.173Z,15.60
2019-05-10T23:17:53.289Z,15.30
2019-05-10T23:20:21.395Z,15.20
2019-05-10T23:22:49.515Z,15.10
2019-05-10T23:25:17.612Z,15.10
2019-05-10T23:27:45.758Z,15.00
